Time;durP1;ratioP1;P1;durP2;ratioP2;P2;SDS_P1;SDS_P2;PMS_P1;PMS_P2;Temp;Humidity;BMP_temperature;BMP_pressure;BME280_temperature;BME280_humidity;BME280_pressure;Samples;Min_cycle;Max_cycle;Signal;HPM_P1;HPM_P2
2021/08/06 00:01:55;;;;;;;6.43;2.43;;;;;;;14.63;100.00;100127.84;5114237;28;20176;-71
2021/08/06 00:04:21;;;;;;;5.90;2.10;;;;;;;14.60;100.00;100122.72;5113623;28;20647;-71
2021/08/06 00:06:47;;;;;;;3.90;2.30;;;;;;;14.74;100.00;100116.22;5095351;28;20265;-71
2021/08/06 00:09:12;;;;;;;3.17;2.40;;;;;;;14.67;100.00;100110.47;5113330;28;20193;-71
2021/08/06 00:11:37;;;;;;;3.10;2.30;;;;;;;14.82;100.00;100119.97;5117639;28;20672;-70
2021/08/06 00:14:03;;;;;;;4.80;2.70;;;;;;;14.71;100.00;100114.63;5099843;28;20226;-71
2021/08/06 00:16:29;;;;;;;5.60;2.47;;;;;;;14.66;100.00;100112.31;5099480;28;20204;-70
2021/08/06 00:18:54;;;;;;;4.40;2.40;;;;;;;14.46;100.00;100109.53;5099292;28;20200;-71
2021/08/06 00:21:20;;;;;;;3.90;2.50;;;;;;;14.48;100.00;100121.84;5099278;28;20184;-71
2021/08/06 00:23:45;;;;;;;5.57;3.10;;;;;;;14.54;100.00;100117.84;5116470;28;20195;-71
2021/08/06 00:26:12;;;;;;;5.23;2.53;;;;;;;14.54;100.00;100120.53;5117513;28;20170;-71
2021/08/06 00:28:37;;;;;;;4.03;2.37;;;;;;;14.55;100.00;100119.53;5117090;27;20662;-71
2021/08/06 00:31:02;;;;;;;5.10;2.20;;;;;;;14.48;100.00;100113.78;5116620;28;20173;-72
2021/08/06 00:33:27;;;;;;;4.03;2.37;;;;;;;14.30;100.00;100116.09;5116461;28;20223;-72
2021/08/06 00:35:53;;;;;;;4.90;2.13;;;;;;;14.17;100.00;100120.75;5117841;28;20181;-71
2021/08/06 00:38:18;;;;;;;2.80;2.17;;;;;;;14.11;100.00;100112.28;5117519;28;20657;-71
2021/08/06 00:40:43;;;;;;;4.83;2.47;;;;;;;14.23;100.00;100114.03;5117578;28;20202;-71
2021/08/06 00:43:09;;;;;;;2.90;2.10;;;;;;;14.22;100.00;100113.16;5117657;28;20174;-72
2021/08/06 00:45:34;;;;;;;4.63;2.20;;;;;;;14.16;100.00;100116.34;5116780;28;20177;-70
2021/08/06 00:48:00;;;;;;;4.07;2.40;;;;;;;14.09;100.00;100115.94;5116118;28;20703;-70
2021/08/06 00:50:26;;;;;;;4.53;2.57;;;;;;;14.04;100.00;100117.28;5101051;28;20194;-71
2021/08/06 00:52:51;;;;;;;4.30;2.20;;;;;;;13.99;100.00;100131.06;5115637;28;20249;-70
2021/08/06 00:55:17;;;;;;;3.40;2.40;;;;;;;13.95;100.00;100126.91;5098386;28;20174;-70
2021/08/06 00:57:42;;;;;;;3.80;2.50;;;;;;;13.92;100.00;100127.16;5115412;28;20191;-71
2021/08/06 01:00:07;;;;;;;4.47;2.60;;;;;;;13.91;100.00;100122.78;5115524;28;20185;-70
2021/08/06 01:02:51;;;;;;;2.40;2.20;;;;;;;13.96;100.00;100123.25;5115383;28;20230;-70
2021/08/06 01:05:18;;;;;;;3.57;2.50;;;;;;;13.92;100.00;100124.47;5115410;28;20164;-70
2021/08/06 01:07:48;;;;;;;7.27;2.90;;;;;;;13.96;100.00;100127.78;5115290;28;20709;-70
2021/08/06 01:10:13;;;;;;;4.30;3.00;;;;;;;14.00;100.00;100113.16;5115046;28;20367;-70
2021/08/06 01:12:54;;;;;;;5.00;3.00;;;;;;;13.87;100.00;100115.09;5115362;28;20684;-71
2021/08/06 01:15:20;;;;;;;12.30;3.20;;;;;;;13.91;100.00;100114.72;5115244;28;20652;-71
2021/08/06 01:17:46;;;;;;;6.77;3.47;;;;;;;13.91;100.00;100117.41;5115075;28;20170;-71
2021/08/06 01:20:31;;;;;;;5.43;3.60;;;;;;;13.82;100.00;100104.72;5097218;28;20696;-71
2021/08/06 01:23:28;;;;;;;4.60;3.30;;;;;;;13.80;100.00;100109.34;5115097;28;20188;-71
2021/08/06 01:26:03;;;;;;;4.07;2.93;;;;;;;13.79;100.00;100113.00;5097828;28;20170;-71
2021/08/06 01:28:33;;;;;;;5.93;3.40;;;;;;;13.88;100.00;100114.13;5114787;28;20185;-71
2021/08/06 01:30:59;;;;;;;4.73;3.07;;;;;;;13.97;100.00;100110.72;5116377;28;20272;-71
2021/08/06 01:33:24;;;;;;;3.97;3.40;;;;;;;14.01;100.00;100109.50;5116014;28;20258;-71
2021/08/06 01:35:49;;;;;;;5.07;3.50;;;;;;;13.95;100.00;100113.50;5115855;28;20174;-71
2021/08/06 01:38:16;;;;;;;6.23;3.07;;;;;;;13.97;100.00;100111.56;5115070;28;20638;-71
2021/08/06 01:40:52;;;;;;;5.20;3.30;;;;;;;13.92;100.00;100119.13;5114839;28;20221;-71
2021/08/06 01:43:53;;;;;;;4.93;3.30;;;;;;;13.98;100.00;100101.69;5097412;28;20169;-71
2021/08/06 01:46:24;;;;;;;5.60;3.10;;;;;;;13.93;100.00;100103.88;5081893;28;20480;-71
2021/08/06 01:48:52;;;;;;;4.83;3.13;;;;;;;13.94;100.00;100094.84;5097488;28;20193;-71
2021/08/06 01:51:20;;;;;;;6.40;3.20;;;;;;;13.99;100.00;100108.75;5114704;28;20530;-71
2021/08/06 01:53:48;;;;;;;6.17;3.17;;;;;;;14.05;100.00;100098.38;5097277;28;20218;-71
2021/08/06 01:56:18;;;;;;;5.63;3.77;;;;;;;14.28;100.00;100093.91;5114512;28;20174;-71
2021/08/06 01:58:48;;;;;;;10.17;3.37;;;;;;;14.41;100.00;100088.38;5114329;28;20196;-71
2021/08/06 02:01:14;;;;;;;4.53;3.13;;;;;;;14.50;100.00;100081.47;5097273;28;20169;-71
2021/08/06 02:03:40;;;;;;;6.10;4.17;;;;;;;14.58;100.00;100079.88;5114163;28;20281;-70
2021/08/06 02:06:06;;;;;;;10.17;3.17;;;;;;;14.67;100.00;100083.63;5097205;28;20181;-71
2021/08/06 02:08:31;;;;;;;4.10;3.20;;;;;;;14.75;100.00;100073.09;5114005;28;20269;-71
2021/08/06 02:10:57;;;;;;;4.60;2.47;;;;;;;14.51;100.00;100065.25;5114101;28;20268;-71
2021/08/06 02:13:22;;;;;;;4.43;2.63;;;;;;;14.30;100.00;100072.28;5113908;28;20200;-71
2021/08/06 02:15:48;;;;;;;2.90;2.33;;;;;;;14.18;100.00;100071.47;5114967;28;20169;-71
2021/08/06 02:18:16;;;;;;;2.70;2.20;;;;;;;14.03;100.00;100065.47;5113798;28;20196;-71
2021/08/06 02:20:42;;;;;;;3.90;2.13;;;;;;;13.90;100.00;100064.72;5113936;28;20261;-71
2021/08/06 02:23:08;;;;;;;2.20;2.00;;;;;;;13.78;100.00;100071.06;5113808;28;20200;-71
2021/08/06 02:25:33;;;;;;;2.83;1.80;;;;;;;13.71;100.00;100067.97;5113649;28;20209;-71
2021/08/06 02:28:00;;;;;;;5.70;1.60;;;;;;;13.63;100.00;100074.94;5113681;28;20741;-71
2021/08/06 02:30:26;;;;;;;2.63;2.00;;;;;;;13.60;100.00;100070.66;5114694;28;20205;-70
2021/08/06 02:32:52;;;;;;;2.30;1.67;;;;;;;13.56;100.00;100071.88;5113291;28;20173;-71
2021/08/06 02:35:17;;;;;;;2.33;1.67;;;;;;;13.58;100.00;100069.06;5113488;28;20659;-71
2021/08/06 02:37:45;;;;;;;1.93;1.63;;;;;;;13.58;100.00;100077.09;5114032;28;20170;-71
2021/08/06 02:40:11;;;;;;;4.80;1.90;;;;;;;13.59;100.00;100068.09;5113772;28;20193;-70
2021/08/06 02:42:36;;;;;;;2.60;2.23;;;;;;;13.59;100.00;100074.31;5113408;28;20486;-70
2021/08/06 02:45:03;;;;;;;2.67;2.20;;;;;;;13.62;100.00;100068.72;5096387;28;20680;-70
2021/08/06 02:47:28;;;;;;;2.90;1.93;;;;;;;13.67;100.00;100071.03;5113121;28;20202;-70
2021/08/06 02:49:54;;;;;;;6.00;2.20;;;;;;;13.67;100.00;100060.31;5113306;28;20194;-70
2021/08/06 02:52:19;;;;;;;4.10;2.20;;;;;;;13.63;100.00;100064.19;5113375;28;20544;-70
2021/08/06 02:54:44;;;;;;;3.57;2.70;;;;;;;13.59;100.00;100066.25;5113371;28;20502;-70
2021/08/06 02:57:10;;;;;;;6.37;3.30;;;;;;;13.59;100.00;100054.69;5113140;28;20215;-71
2021/08/06 02:59:35;;;;;;;3.30;2.97;;;;;;;13.58;100.00;100061.03;5114375;28;20185;-70
2021/08/06 03:02:01;;;;;;;4.13;3.37;;;;;;;13.57;100.00;100059.31;5114285;28;20200;-70
2021/08/06 03:04:26;;;;;;;5.53;3.80;;;;;;;13.53;100.00;100060.53;5096161;28;20209;-70
2021/08/06 03:06:51;;;;;;;7.23;3.73;;;;;;;13.49;100.00;100054.56;5114440;27;20170;-70
2021/08/06 03:09:16;;;;;;;6.10;3.53;;;;;;;13.51;100.00;100060.66;5114327;28;20200;-70
2021/08/06 03:11:42;;;;;;;5.93;3.83;;;;;;;13.49;100.00;100067.09;5096421;28;20181;-70
2021/08/06 03:14:07;;;;;;;5.63;3.70;;;;;;;13.52;100.00;100058.81;5113071;28;20174;-70
2021/08/06 03:16:32;;;;;;;7.03;3.30;;;;;;;13.45;100.00;100059.31;5113083;28;20205;-70
2021/08/06 03:18:58;;;;;;;3.07;2.77;;;;;;;13.40;100.00;100050.75;5095592;28;20215;-70
2021/08/06 03:21:23;;;;;;;3.97;2.83;;;;;;;13.39;100.00;100051.75;5113218;28;20177;-70
2021/08/06 03:23:48;;;;;;;3.30;2.70;;;;;;;13.40;100.00;100058.81;5112575;28;20181;-70
2021/08/06 03:26:13;;;;;;;2.97;2.27;;;;;;;13.41;100.00;100060.50;5113147;28;20651;-70
2021/08/06 03:28:39;;;;;;;3.30;2.90;;;;;;;13.44;100.00;100051.38;5112861;28;20209;-70
2021/08/06 03:31:04;;;;;;;3.13;2.70;;;;;;;13.48;100.00;100054.69;5115281;28;20641;-70
2021/08/06 03:33:29;;;;;;;5.07;3.20;;;;;;;13.50;100.00;100052.72;5114110;28;20177;-71
2021/08/06 03:35:55;;;;;;;3.90;3.03;;;;;;;13.52;100.00;100056.16;5117466;28;20208;-71
2021/08/06 03:38:22;;;;;;;5.70;3.40;;;;;;;13.52;100.00;100059.69;5121400;28;20195;-71
2021/08/06 03:40:48;;;;;;;5.20;3.60;;;;;;;13.51;100.00;100052.59;5117054;28;20210;-71
2021/08/06 03:43:14;;;;;;;5.73;3.90;;;;;;;13.49;100.00;100054.56;5134975;28;20208;-71
2021/08/06 03:45:40;;;;;;;7.90;4.00;;;;;;;13.53;100.00;100052.50;5135573;28;20169;-71
2021/08/06 03:48:05;;;;;;;5.90;4.43;;;;;;;13.51;100.00;100059.78;5114057;28;20202;-71
2021/08/06 03:50:31;;;;;;;4.50;3.73;;;;;;;13.52;100.00;100054.31;5128855;28;20196;-70
2021/08/06 03:52:56;;;;;;;6.57;4.33;;;;;;;13.52;100.00;100053.47;5127527;28;20166;-71
2021/08/06 03:55:21;;;;;;;6.03;4.30;;;;;;;13.52;100.00;100053.47;5121253;28;20201;-70
2021/08/06 03:57:48;;;;;;;5.17;3.73;;;;;;;13.63;100.00;100053.47;5113658;28;20248;-70
2021/08/06 04:00:14;;;;;;;6.47;4.23;;;;;;;13.65;100.00;100059.56;5095477;28;20281;-69
2021/08/06 04:02:42;;;;;;;5.17;3.93;;;;;;;13.70;100.00;100050.19;5112281;28;20273;-71
2021/08/06 04:05:08;;;;;;;4.67;3.53;;;;;;;13.76;100.00;100048.88;5095627;28;20177;-71
2021/08/06 04:07:33;;;;;;;9.83;4.33;;;;;;;13.82;100.00;100047.53;5113386;28;20604;-70
2021/08/06 04:09:58;;;;;;;5.27;3.60;;;;;;;13.87;100.00;100056.06;5112248;28;20200;-70
2021/08/06 04:12:23;;;;;;;5.87;3.83;;;;;;;13.92;100.00;100046.69;5114032;28;20173;-70
2021/08/06 04:14:49;;;;;;;3.37;2.80;;;;;;;13.89;100.00;100054.13;5094934;28;20638;-70
2021/08/06 04:17:14;;;;;;;3.20;2.40;;;;;;;13.74;100.00;100053.47;5095270;28;20173;-71
2021/08/06 04:19:39;;;;;;;2.63;2.00;;;;;;;13.75;100.00;100052.50;5112054;28;20190;-71
2021/08/06 04:22:05;;;;;;;3.03;2.20;;;;;;;13.73;100.00;100046.41;5111992;28;20170;-71
2021/08/06 04:24:30;;;;;;;2.63;2.13;;;;;;;13.77;100.00;100043.41;5113533;28;20525;-70
2021/08/06 04:26:55;;;;;;;3.30;2.33;;;;;;;13.82;100.00;100045.72;5112246;28;20173;-70
2021/08/06 04:29:21;;;;;;;7.03;3.37;;;;;;;13.81;100.00;100040.47;5131951;22;20201;-70
2021/08/06 04:31:46;;;;;;;4.23;3.10;;;;;;;13.86;100.00;100044.50;5093434;28;20186;-70
2021/08/06 04:34:11;;;;;;;6.40;3.87;;;;;;;13.90;100.00;100047.78;5093245;28;20171;-70
2021/08/06 04:36:37;;;;;;;6.57;3.87;;;;;;;13.88;100.00;100047.91;5092750;28;20208;-69
2021/08/06 04:39:02;;;;;;;7.47;4.43;;;;;;;13.87;100.00;100056.06;5092653;28;20170;-69
2021/08/06 04:41:27;;;;;;;5.07;3.67;;;;;;;13.84;100.00;100051.81;5092416;28;20338;-69
2021/08/06 04:43:53;;;;;;;8.27;4.20;;;;;;;13.87;100.00;100043.53;5092542;28;20179;-69
2021/08/06 04:46:18;;;;;;;7.10;3.50;;;;;;;13.88;100.00;100045.22;5057659;28;20178;-69
2021/08/06 04:48:43;;;;;;;9.23;3.90;;;;;;;13.87;100.00;100046.19;5074559;28;20283;-69
2021/08/06 04:51:08;;;;;;;10.00;4.00;;;;;;;13.89;100.00;100033.53;5074227;28;20194;-68
2021/08/06 04:53:34;;;;;;;11.27;3.90;;;;;;;13.96;100.00;100040.09;5092581;28;20170;-69
2021/08/06 04:55:59;;;;;;;4.50;3.30;;;;;;;14.04;100.00;100040.34;5076497;28;20178;-69
2021/08/06 04:58:24;;;;;;;5.40;3.33;;;;;;;14.14;100.00;100037.78;5078358;28;20205;-69
2021/08/06 05:00:50;;;;;;;8.37;3.50;;;;;;;14.23;100.00;100041.56;5077743;28;20228;-69
2021/08/06 05:03:15;;;;;;;4.60;3.40;;;;;;;14.31;100.00;100039.09;5096298;28;20170;-69
2021/08/06 05:05:41;;;;;;;6.93;3.77;;;;;;;14.33;100.00;100042.53;5095720;28;20542;-68
2021/08/06 05:08:06;;;;;;;6.50;3.30;;;;;;;14.39;100.00;100042.88;5077996;28;20217;-69
2021/08/06 05:10:31;;;;;;;5.47;3.13;;;;;;;14.47;100.00;100050.31;5077578;28;20202;-69
2021/08/06 05:12:56;;;;;;;4.93;3.47;;;;;;;14.58;100.00;100042.28;5077876;28;20209;-69
2021/08/06 05:15:22;;;;;;;6.90;4.00;;;;;;;14.66;100.00;100045.19;5095521;28;20174;-68
2021/08/06 05:17:48;;;;;;;6.53;4.23;;;;;;;14.68;100.00;100050.41;5095852;28;20254;-68
2021/08/06 05:20:14;;;;;;;5.47;3.40;;;;;;;14.66;100.00;100049.69;5077818;28;20235;-67
2021/08/06 05:22:39;;;;;;;6.63;3.30;;;;;;;14.70;100.00;100053.84;5095694;28;20202;-68
2021/08/06 05:25:05;;;;;;;5.20;3.33;;;;;;;14.75;100.00;100054.31;5095485;28;20166;-68
2021/08/06 05:27:30;;;;;;;5.10;4.30;;;;;;;14.89;100.00;100054.03;5077240;28;20198;-69
2021/08/06 05:29:55;;;;;;;5.27;4.07;;;;;;;14.96;99.99;100051.69;5095309;28;20202;-68
2021/08/06 05:32:20;;;;;;;4.37;2.70;;;;;;;14.95;97.95;100044.59;5077755;28;20170;-68
2021/08/06 05:34:46;;;;;;;4.10;2.27;;;;;;;15.10;96.60;100051.38;5077456;28;20197;-68
2021/08/06 05:37:11;;;;;;;5.43;2.73;;;;;;;15.21;95.50;100050.47;5095723;28;20174;-68
2021/08/06 05:39:36;;;;;;;5.50;3.37;;;;;;;15.28;95.13;100055.22;5095985;28;20186;-68
2021/08/06 05:42:02;;;;;;;8.47;2.60;;;;;;;15.12;95.46;100049.41;5077119;28;20178;-68
2021/08/06 05:44:27;;;;;;;2.83;2.40;;;;;;;15.09;96.40;100051.50;5077052;28;20589;-68
2021/08/06 05:46:52;;;;;;;9.10;2.70;;;;;;;15.03;96.17;100042.13;5096005;28;20170;-68
2021/08/06 05:49:18;;;;;;;4.23;2.00;;;;;;;15.10;96.42;100048.69;5095145;28;20664;-68
2021/08/06 05:51:43;;;;;;;4.17;2.60;;;;;;;15.19;96.19;100045.22;5078218;28;20199;-69
2021/08/06 05:54:09;;;;;;;4.10;2.87;;;;;;;15.31;95.92;100041.50;5095190;28;20198;-69
2021/08/06 05:56:34;;;;;;;3.03;2.70;;;;;;;15.40;94.52;100042.56;5095233;28;20665;-69
2021/08/06 05:58:59;;;;;;;4.03;3.23;;;;;;;15.22;96.61;100044.94;5077400;28;20170;-69
2021/08/06 06:01:25;;;;;;;4.13;3.13;;;;;;;15.47;96.06;100049.09;5095069;28;20190;-68
2021/08/06 06:03:50;;;;;;;7.43;3.93;;;;;;;15.53;95.28;100050.41;5095257;28;20179;-68
2021/08/06 06:06:15;;;;;;;6.03;3.20;;;;;;;15.62;95.56;100044.28;5094484;28;20545;-68
2021/08/06 06:08:41;;;;;;;6.50;3.67;;;;;;;15.69;96.70;100042.78;5076877;28;20239;-68
2021/08/06 06:11:06;;;;;;;4.80;3.60;;;;;;;15.77;95.19;100053.72;5094967;28;20198;-69
2021/08/06 06:13:31;;;;;;;8.00;3.90;;;;;;;15.90;94.66;100048.97;5076911;28;20177;-68
2021/08/06 06:15:57;;;;;;;8.63;3.47;;;;;;;16.01;93.31;100044.50;5095249;28;20174;-69
2021/08/06 06:18:22;;;;;;;8.13;4.03;;;;;;;16.01;92.83;100041.81;5076737;28;20166;-68
2021/08/06 06:20:48;;;;;;;8.40;4.30;;;;;;;15.97;93.53;100040.34;5076773;28;20287;-68
2021/08/06 06:23:15;;;;;;;10.43;3.77;;;;;;;16.08;93.62;100035.75;5076518;28;20178;-68
2021/08/06 06:25:40;;;;;;;11.87;3.70;;;;;;;16.10;94.07;100046.38;5077157;28;20170;-70
2021/08/06 06:28:06;;;;;;;8.27;4.37;;;;;;;16.13;93.49;100041.56;5076508;28;20186;-70
2021/08/06 06:30:33;;;;;;;8.07;3.63;;;;;;;16.17;93.42;100029.53;5094623;28;20233;-70
2021/08/06 06:33:00;;;;;;;7.23;3.93;;;;;;;16.19;93.08;100032.09;5094786;28;20178;-69
2021/08/06 06:35:26;;;;;;;5.17;3.63;;;;;;;16.35;92.76;100035.09;5076425;28;20272;-68
2021/08/06 06:37:51;;;;;;;7.00;3.60;;;;;;;16.46;92.01;100037.72;5095151;28;20166;-71
2021/08/06 06:40:18;;;;;;;7.13;3.63;;;;;;;16.63;90.86;100038.88;5076830;28;20546;-70
2021/08/06 06:42:44;;;;;;;4.67;3.40;;;;;;;16.81;89.31;100033.72;5076476;28;20212;-70
2021/08/06 06:45:10;;;;;;;5.40;3.50;;;;;;;17.02;87.71;100039.81;5076617;28;20217;-70
2021/08/06 06:47:40;;;;;;;12.40;3.70;;;;;;;17.11;87.77;100033.59;5094555;28;20218;-70
2021/08/06 06:50:09;;;;;;;7.70;3.57;;;;;;;17.07;88.02;100040.22;5094228;28;20197;-69
2021/08/06 06:52:34;;;;;;;7.87;4.37;;;;;;;17.10;88.49;100039.13;5094609;28;20527;-70
2021/08/06 06:55:00;;;;;;;10.07;3.33;;;;;;;17.32;87.04;100046.03;5076287;28;20188;-69
2021/08/06 06:57:25;;;;;;;8.20;3.90;;;;;;;17.31;87.71;100034.41;5095266;28;20223;-70
2021/08/06 06:59:50;;;;;;;12.50;4.53;;;;;;;17.35;87.54;100043.06;5100691;28;20198;-70
2021/08/06 07:02:16;;;;;;;11.63;3.47;;;;;;;17.42;86.51;100044.19;5099070;28;20174;-70
2021/08/06 07:04:41;;;;;;;11.33;3.93;;;;;;;17.46;86.30;100042.91;5100044;28;20185;-70
2021/08/06 07:07:06;;;;;;;13.30;3.93;;;;;;;17.47;85.52;100047.31;5098686;28;20616;-71
2021/08/06 07:09:32;;;;;;;30.93;9.10;;;;;;;17.66;84.41;100044.59;5099524;28;20209;-69
2021/08/06 07:11:57;;;;;;;6.03;4.00;;;;;;;17.74;84.40;100043.88;5077002;28;20178;-70
2021/08/06 07:14:22;;;;;;;6.87;3.70;;;;;;;17.84;84.03;100038.44;5079377;28;20180;-69
2021/08/06 07:16:48;;;;;;;7.93;3.67;;;;;;;17.93;83.40;100043.84;5094110;28;20581;-70
2021/08/06 07:19:13;;;;;;;7.17;3.57;;;;;;;17.95;83.65;100041.00;5093000;28;20678;-70
2021/08/06 07:21:43;;;;;;;7.20;3.70;;;;;;;18.05;83.76;100042.66;5076431;28;20273;-70
2021/08/06 07:24:09;;;;;;;7.00;4.00;;;;;;;18.04;83.53;100049.03;5094167;28;20212;-69
2021/08/06 07:26:34;;;;;;;14.60;4.07;;;;;;;18.06;84.17;100040.78;5093910;28;20190;-69
2021/08/06 07:28:59;;;;;;;7.97;3.33;;;;;;;18.32;83.27;100040.97;5099002;28;20210;-72
2021/08/06 07:31:25;;;;;;;5.17;3.50;;;;;;;18.41;83.50;100038.22;5081940;28;20270;-73
2021/08/06 07:33:50;;;;;;;9.30;3.97;;;;;;;18.37;84.18;100042.22;5082678;28;20174;-70
2021/08/06 07:36:16;;;;;;;10.70;4.20;;;;;;;18.51;83.70;100042.72;5065670;28;20178;-68
2021/08/06 07:38:41;;;;;;;6.20;3.87;;;;;;;18.44;83.71;100046.03;5093652;28;20175;-70
2021/08/06 07:41:06;;;;;;;9.10;3.73;;;;;;;18.59;83.33;100050.94;5075600;28;20287;-70
2021/08/06 07:43:31;;;;;;;7.90;3.73;;;;;;;18.64;82.53;100043.25;5093584;28;20227;-69
2021/08/06 07:45:57;;;;;;;7.93;3.43;;;;;;;18.77;82.98;100051.84;5075354;28;20182;-70
2021/08/06 07:48:22;;;;;;;6.90;3.90;;;;;;;18.73;82.45;100043.19;5075086;28;20229;-70
2021/08/06 07:50:47;;;;;;;6.67;3.60;;;;;;;18.88;81.21;100046.19;5094907;28;20567;-69
2021/08/06 07:53:13;;;;;;;6.13;3.40;;;;;;;18.98;81.13;100051.56;5094888;28;20182;-71
2021/08/06 07:55:38;;;;;;;9.57;3.50;;;;;;;18.88;81.23;100042.66;5076871;28;20178;-69
2021/08/06 07:58:03;;;;;;;9.93;3.40;;;;;;;19.11;80.92;100041.19;5093638;28;20166;-70
2021/08/06 08:00:29;;;;;;;6.60;3.33;;;;;;;19.21;81.07;100049.22;5093149;28;20681;-70
2021/08/06 08:02:55;;;;;;;23.80;4.63;;;;;;;18.96;80.10;100043.59;5093435;28;20189;-69
2021/08/06 08:05:21;;;;;;;135.23;13.87;;;;;;;19.19;79.80;100043.13;5093604;28;20238;-69
2021/08/06 08:07:46;;;;;;;284.90;20.90;;;;;;;19.41;79.96;100042.66;5075785;28;20628;-70
2021/08/06 08:10:13;;;;;;;54.73;6.40;;;;;;;19.48;78.02;100043.72;5093462;28;20747;-70
2021/08/06 08:12:38;;;;;;;672.93;51.87;;;;;;;19.38;78.58;100034.00;5093050;28;20181;-68
2021/08/06 08:15:05;;;;;;;8.97;3.70;;;;;;;19.46;77.89;100039.47;5093330;28;20174;-69
2021/08/06 08:17:30;;;;;;;5.50;4.07;;;;;;;19.42;78.44;100033.53;5093027;28;20183;-69
2021/08/06 08:19:56;;;;;;;14.40;4.37;;;;;;;19.37;78.86;100033.16;5075332;28;20201;-69
2021/08/06 08:22:21;;;;;;;10.50;3.97;;;;;;;19.26;79.20;100036.94;5093600;28;20167;-69
2021/08/06 08:24:47;;;;;;;11.00;4.37;;;;;;;19.66;77.19;100036.44;5093412;28;20296;-69
2021/08/06 08:27:13;;;;;;;9.17;4.97;;;;;;;19.71;78.12;100033.28;5093163;28;20676;-69
2021/08/06 08:29:38;;;;;;;5.80;4.33;;;;;;;19.55;77.76;100043.97;5075283;28;20263;-69
2021/08/06 08:32:03;;;;;;;25.33;7.20;;;;;;;19.73;76.35;100033.97;5098036;28;20586;-70
2021/08/06 08:34:29;;;;;;;11.77;4.63;;;;;;;19.86;76.75;100030.81;5098238;28;20646;-69
2021/08/06 08:36:54;;;;;;;15.27;4.23;;;;;;;20.05;76.78;100035.97;5097806;28;20170;-69
2021/08/06 08:39:19;;;;;;;44.27;6.30;;;;;;;20.07;75.74;100039.41;5097793;28;20310;-70
2021/08/06 08:41:45;;;;;;;21.73;4.53;;;;;;;20.24;74.81;100029.50;5098097;28;20170;-70
2021/08/06 08:44:10;;;;;;;35.73;6.87;;;;;;;20.01;75.26;100026.50;5102127;28;20166;-69
2021/08/06 08:46:37;;;;;;;5.30;3.63;;;;;;;20.11;74.98;100031.81;5096880;28;20181;-69
2021/08/06 08:49:02;;;;;;;9.33;4.03;;;;;;;20.37;74.12;100020.91;5078889;28;20255;-70
2021/08/06 08:51:29;;;;;;;8.43;5.17;;;;;;;20.51;73.09;100025.75;5096832;28;20174;-69
2021/08/06 08:53:56;;;;;;;6.00;3.63;;;;;;;20.55;72.96;100027.09;5096988;28;20170;-69
2021/08/06 08:56:23;;;;;;;25.07;6.13;;;;;;;20.60;72.65;100019.31;5096999;28;20170;-69
2021/08/06 08:58:48;;;;;;;14.73;4.73;;;;;;;20.83;70.44;100023.13;5096687;28;20186;-69
2021/08/06 09:01:13;;;;;;;12.27;4.37;;;;;;;20.55;69.53;100016.25;5078762;28;20690;-69
2021/08/06 09:03:43;;;;;;;6.53;3.70;;;;;;;20.63;69.81;100018.16;5099773;28;20178;-70
2021/08/06 09:06:08;;;;;;;5.90;3.47;;;;;;;20.81;69.60;100011.59;5083012;28;20189;-71
2021/08/06 09:08:34;;;;;;;13.77;3.97;;;;;;;20.67;69.40;100006.81;5107586;28;20685;-71
2021/08/06 09:11:00;;;;;;;9.40;3.10;;;;;;;20.74;69.51;100010.53;5097333;28;20186;-71
2021/08/06 09:13:26;;;;;;;6.67;3.83;;;;;;;20.89;69.08;100005.31;5079127;28;20170;-69
2021/08/06 09:15:56;;;;;;;7.43;3.63;;;;;;;20.83;67.67;100009.56;5097327;28;20189;-71
2021/08/06 09:18:25;;;;;;;5.40;3.00;;;;;;;21.16;66.98;100010.41;5096831;28;20634;-69
2021/08/06 09:20:52;;;;;;;6.27;2.80;;;;;;;21.31;66.23;100012.50;5078671;28;20198;-73
2021/08/06 09:23:40;;;;;;;8.87;2.67;;;;;;;21.47;65.55;100013.34;5096808;28;20167;-73
2021/08/06 09:26:27;;;;;;;11.73;3.03;;;;;;;21.58;64.57;100003.16;5078504;28;20181;-70
2021/08/06 09:29:04;;;;;;;15.87;2.83;;;;;;;21.73;64.92;100002.28;5096380;28;20247;-70
2021/08/06 09:31:30;;;;;;;6.43;3.03;;;;;;;21.83;64.20;100011.06;5096102;28;20189;-69
2021/08/06 09:34:19;;;;;;;3.47;2.80;;;;;;;21.84;64.79;100007.34;5096756;28;20201;-69
2021/08/06 09:36:55;;;;;;;6.70;2.67;;;;;;;21.78;63.10;99999.88;5078832;28;20204;-70
2021/08/06 09:39:22;;;;;;;6.70;3.27;;;;;;;21.84;63.89;100001.91;5096898;28;20649;-69
2021/08/06 09:41:47;;;;;;;11.40;2.90;;;;;;;21.67;62.43;99997.53;5077461;28;20596;-70
2021/08/06 09:44:18;;;;;;;6.70;2.60;;;;;;;21.78;62.36;99991.75;5096714;28;20174;-69
2021/08/06 09:46:45;;;;;;;4.63;2.70;;;;;;;22.31;60.90;99994.84;5095648;28;20170;-70
2021/08/06 09:49:11;;;;;;;4.03;2.30;;;;;;;21.96;60.36;99996.97;5095353;28;20712;-69
2021/08/06 09:51:38;;;;;;;8.13;2.30;;;;;;;21.92;60.57;99994.75;5078060;28;20170;-68
2021/08/06 09:54:35;;;;;;;5.63;2.37;;;;;;;21.97;59.33;99995.09;5095885;28;20232;-70
2021/08/06 09:57:10;;;;;;;29.47;3.47;;;;;;;22.34;58.16;99997.19;5050650;28;20198;-68
2021/08/06 09:59:36;;;;;;;3.33;2.10;;;;;;;22.32;57.15;99991.94;5077570;28;20290;-69
2021/08/06 10:02:15;;;;;;;9.43;2.97;;;;;;;22.31;57.04;100001.13;5095487;28;20176;-70
2021/08/06 10:04:42;;;;;;;3.53;3.13;;;;;;;22.49;55.95;99992.69;5095616;28;20181;-70
2021/08/06 10:07:07;;;;;;;5.73;2.13;;;;;;;22.85;55.34;99994.88;5077657;28;20197;-70
2021/08/06 10:09:33;;;;;;;1.87;1.70;;;;;;;22.99;55.87;99983.22;5095437;28;20283;-70
2021/08/06 10:11:58;;;;;;;5.37;2.23;;;;;;;22.64;54.38;99990.03;5095353;28;20530;-70
2021/08/06 10:14:24;;;;;;;2.80;1.70;;;;;;;22.76;54.17;99984.03;5095672;28;20232;-70
2021/08/06 10:16:50;;;;;;;2.57;1.87;;;;;;;22.37;53.67;99977.81;5095580;28;20174;-70
2021/08/06 10:19:15;;;;;;;5.20;1.90;;;;;;;22.56;53.88;99981.94;5095126;28;20239;-69
2021/08/06 10:21:41;;;;;;;1.60;1.27;;;;;;;23.52;51.39;99970.53;5095033;28;20174;-69
2021/08/06 10:24:07;;;;;;;2.37;1.63;;;;;;;23.55;50.67;99973.75;5077165;28;20259;-70
2021/08/06 10:26:33;;;;;;;3.93;1.60;;;;;;;23.62;50.79;99982.88;5076957;28;20546;-70
2021/08/06 10:28:59;;;;;;;9.70;2.20;;;;;;;23.99;51.17;99973.78;5095333;28;20210;-70
2021/08/06 10:31:24;;;;;;;8.43;1.83;;;;;;;23.29;51.25;99978.72;5132370;22;20228;-70
2021/08/06 10:34:09;;;;;;;2.97;1.53;;;;;;;23.16;49.84;99975.78;5113313;28;20173;-71
2021/08/06 10:36:43;;;;;;;2.50;1.70;;;;;;;23.38;49.94;99973.00;5113684;28;20230;-71
2021/08/06 10:39:30;;;;;;;6.27;1.93;;;;;;;23.34;50.22;99965.41;5113500;28;20610;-71
2021/08/06 10:41:56;;;;;;;4.67;1.67;;;;;;;23.81;50.47;99965.13;5093012;28;20265;-71
2021/08/06 10:44:22;;;;;;;15.77;1.80;;;;;;;23.54;50.74;99965.72;5093036;28;20177;-71
2021/08/06 10:46:57;;;;;;;3.17;1.87;;;;;;;23.60;50.87;99967.75;5093381;28;20174;-72
2021/08/06 10:49:23;;;;;;;1.87;1.47;;;;;;;23.91;49.00;99968.41;5093339;28;20178;-71
2021/08/06 10:51:48;;;;;;;4.57;1.50;;;;;;;24.44;48.55;99969.13;5092853;28;20209;-72
2021/08/06 10:54:26;;;;;;;8.80;1.80;;;;;;;24.66;47.66;99959.13;5092623;28;20483;-71
2021/08/06 10:57:16;;;;;;;9.77;1.90;;;;;;;24.75;48.05;99960.69;5092745;28;20242;-71
2021/08/06 10:59:41;;;;;;;2.00;1.50;;;;;;;24.72;46.91;99955.59;5092404;28;20228;-70
2021/08/06 11:02:37;;;;;;;5.57;1.70;;;;;;;24.62;47.18;99949.63;5092802;28;20174;-71
2021/08/06 11:05:27;;;;;;;3.37;1.50;;;;;;;25.22;46.09;99951.91;5109486;28;20224;-71
2021/08/06 11:07:52;;;;;;;5.63;1.60;;;;;;;25.20;46.42;99948.53;5092397;28;20201;-71
2021/08/06 11:10:43;;;;;;;8.30;1.93;;;;;;;26.10;45.05;99957.81;5109487;28;20202;-70
2021/08/06 11:13:37;;;;;;;9.80;2.07;;;;;;;27.39;40.95;99951.22;5092153;28;20185;-71
2021/08/06 11:16:12;;;;;;;3.87;1.53;;;;;;;28.33;38.99;99944.53;5092933;28;20197;-71
2021/08/06 11:18:44;;;;;;;16.83;1.90;;;;;;;27.21;40.11;99944.69;5092342;28;20185;-71
2021/08/06 11:21:09;;;;;;;33.63;2.53;;;;;;;27.95;38.93;99930.72;5093353;28;20684;-70
2021/08/06 11:23:35;;;;;;;31.17;2.95;;;;;;;29.00;36.46;99931.28;5109121;28;20170;-71